Řízení letového provozu České republiky
Letiste: LKKB Aktualizace: 22.07.2019 14:00:32  UTC
 METAR LKKB 22.07. 14:00 ...
METAR LKKB 221400Z 28006KT 9999 SCT043 BKN200 28/12 Q1022 NOSIG RMK BLU BLU=
 TAF LKKB 22.07. 11:00 ...
TAF LKKB 221100Z 2212/2312 24005KT 9999 SCT045      BECMG 2212/2214 CAVOK      BECMG 2218/2220 31004KT=